createdAt,value
2019-02-24T00:02:11.347Z,17.97
2019-02-24T00:04:38.621Z,17.00
2019-02-24T00:07:07.085Z,17.40
2019-02-24T00:09:32.442Z,15.30
2019-02-24T00:11:57.873Z,20.37
2019-02-24T00:14:25.148Z,15.63
2019-02-24T00:16:50.439Z,14.10
2019-02-24T00:19:15.626Z,15.97
2019-02-24T00:21:40.848Z,15.90
2019-02-24T00:24:06.091Z,15.07
2019-02-24T00:26:31.355Z,21.27
2019-02-24T00:28:56.561Z,17.53
2019-02-24T00:31:21.884Z,16.50
2019-02-24T00:33:47.086Z,17.20
2019-02-24T00:36:12.263Z,21.40
2019-02-24T00:38:37.467Z,20.10
2019-02-24T00:41:02.711Z,17.73
2019-02-24T00:43:27.953Z,17.47
2019-02-24T00:45:53.176Z,19.43
2019-02-24T00:48:18.380Z,16.50
2019-02-24T00:50:43.871Z,17.33
2019-02-24T00:53:09.098Z,19.03
2019-02-24T00:55:34.298Z,19.07
2019-02-24T00:57:59.530Z,19.30
2019-02-24T01:00:24.725Z,19.30
2019-02-24T01:02:50.034Z,20.80
2019-02-24T01:05:15.397Z,20.10
2019-02-24T01:07:40.802Z,20.40
2019-02-24T01:10:07.786Z,17.87
2019-02-24T01:12:33.098Z,19.60
2019-02-24T01:14:58.492Z,18.73
2019-02-24T01:17:23.891Z,17.60
2019-02-24T01:19:49.275Z,16.63
2019-02-24T01:22:14.435Z,16.87
2019-02-24T01:24:39.788Z,17.70
2019-02-24T01:27:05.189Z,16.77
2019-02-24T01:29:30.645Z,19.50
2019-02-24T01:32:01.279Z,18.57
2019-02-24T01:34:26.435Z,21.50
2019-02-24T01:36:52.644Z,17.73
2019-02-24T01:39:18.939Z,20.73
2019-02-24T01:41:44.123Z,18.90
2019-02-24T01:44:09.316Z,18.63
2019-02-24T01:46:34.605Z,26.60
2019-02-24T01:48:59.931Z,19.50
2019-02-24T01:51:25.108Z,21.43
2019-02-24T01:53:50.256Z,27.73
2019-02-24T01:56:15.542Z,19.73
2019-02-24T01:58:40.744Z,23.37
2019-02-24T02:01:05.965Z,18.97
2019-02-24T02:03:31.394Z,24.73
2019-02-24T02:05:56.588Z,21.43
2019-02-24T02:08:21.768Z,27.60
2019-02-24T02:10:47.158Z,21.10
2019-02-24T02:13:12.375Z,22.37
2019-02-24T02:15:37.547Z,19.37
2019-02-24T02:18:02.879Z,22.70
2019-02-24T02:20:28.083Z,24.90
2019-02-24T02:22:53.403Z,22.10
2019-02-24T02:25:19.727Z,21.83
2019-02-24T02:27:44.903Z,27.93
2019-02-24T02:30:10.258Z,21.73
2019-02-24T02:32:36.724Z,19.87
2019-02-24T02:35:02.924Z,21.80
2019-02-24T02:37:28.122Z,25.27
2019-02-24T02:39:53.617Z,22.17
2019-02-24T02:42:18.791Z,22.77
2019-02-24T02:44:43.939Z,24.43
2019-02-24T02:47:09.136Z,22.27
2019-02-24T02:49:34.341Z,23.23
2019-02-24T02:51:59.533Z,23.70
2019-02-24T02:54:24.747Z,22.67
2019-02-24T02:56:49.949Z,24.87
2019-02-24T02:59:15.152Z,23.03
2019-02-24T03:01:40.354Z,22.17
2019-02-24T03:04:05.530Z,26.17
2019-02-24T03:06:35.134Z,22.30
2019-02-24T03:09:00.422Z,21.13
2019-02-24T03:11:25.854Z,19.30
2019-02-24T03:13:51.162Z,18.50
2019-02-24T03:16:18.273Z,21.57
2019-02-24T03:18:43.545Z,23.23
2019-02-24T03:21:09.035Z,20.03
2019-02-24T03:23:34.248Z,25.40
2019-02-24T03:25:59.547Z,20.40
2019-02-24T03:28:24.792Z,19.93
2019-02-24T03:30:50.020Z,24.77
2019-02-24T03:33:15.173Z,22.27
2019-02-24T03:35:40.361Z,25.00
2019-02-24T03:38:05.640Z,21.07
2019-02-24T03:40:30.845Z,24.47
2019-02-24T03:42:56.088Z,20.07
2019-02-24T03:45:21.269Z,19.83
2019-02-24T03:47:46.658Z,22.57
2019-02-24T03:50:11.963Z,22.00
2019-02-24T03:52:37.321Z,23.57
2019-02-24T03:55:03.635Z,24.07
2019-02-24T03:57:29.027Z,22.40
2019-02-24T03:59:54.334Z,22.63
2019-02-24T04:02:19.572Z,24.30
2019-02-24T04:04:45.079Z,25.00
2019-02-24T04:07:10.275Z,20.77
2019-02-24T04:09:35.534Z,22.10
2019-02-24T04:12:00.837Z,25.13
2019-02-24T04:14:26.187Z,25.90
2019-02-24T04:16:51.428Z,24.10
2019-02-24T04:19:16.684Z,21.40
2019-02-24T04:21:42.533Z,21.87
2019-02-24T04:24:08.130Z,25.97
2019-02-24T04:26:33.342Z,22.40
2019-02-24T04:28:58.763Z,37.70
2019-02-24T04:31:24.002Z,23.33
2019-02-24T04:33:49.189Z,25.63
2019-02-24T04:36:17.222Z,25.97
2019-02-24T04:38:42.400Z,22.60
2019-02-24T04:41:07.599Z,23.17
2019-02-24T04:43:33.226Z,32.33
2019-02-24T04:45:58.774Z,25.27
2019-02-24T04:48:24.373Z,24.63
2019-02-24T04:50:49.987Z,26.33
2019-02-24T04:53:17.402Z,25.80
2019-02-24T04:55:43.038Z,23.73
2019-02-24T04:58:08.621Z,19.70
2019-02-24T05:00:33.948Z,23.27
2019-02-24T05:02:59.169Z,23.70
2019-02-24T05:05:24.362Z,27.03
2019-02-24T05:07:49.523Z,23.70
2019-02-24T05:10:14.749Z,25.27
2019-02-24T05:12:40.013Z,21.87
2019-02-24T05:15:05.300Z,26.20
2019-02-24T05:17:30.685Z,27.13
2019-02-24T05:19:55.870Z,24.47
2019-02-24T05:22:21.219Z,25.20
2019-02-24T05:24:46.540Z,28.67
2019-02-24T05:27:12.144Z,21.43
2019-02-24T05:29:45.352Z,24.43
2019-02-24T05:32:05.187Z,23.73
2019-02-24T05:34:30.838Z,26.63
2019-02-24T05:36:56.381Z,27.77
2019-02-24T05:39:21.916Z,26.37
2019-02-24T05:41:47.476Z,29.27
2019-02-24T05:44:13.052Z,27.00
2019-02-24T05:46:38.705Z,23.40
2019-02-24T05:49:04.359Z,29.70
2019-02-24T05:51:30.012Z,23.27
2019-02-24T05:53:55.871Z,24.03
2019-02-24T05:56:21.476Z,23.60
2019-02-24T05:58:47.019Z,26.27
2019-02-24T06:01:12.975Z,23.77
2019-02-24T06:03:38.525Z,28.70
2019-02-24T06:06:04.512Z,26.53
2019-02-24T06:08:30.106Z,24.33
2019-02-24T06:10:55.647Z,26.90
2019-02-24T06:13:21.342Z,25.77
2019-02-24T06:15:46.958Z,27.33
2019-02-24T06:18:12.265Z,30.73
2019-02-24T06:20:38.076Z,24.80
2019-02-24T06:23:03.402Z,26.17
2019-02-24T06:25:28.620Z,25.93
2019-02-24T06:27:54.879Z,23.13
2019-02-24T06:30:20.079Z,26.07
2019-02-24T06:32:45.296Z,24.93
2019-02-24T06:35:10.546Z,23.13
2019-02-24T06:37:35.724Z,27.20
2019-02-24T06:40:00.952Z,27.33
2019-02-24T06:42:26.282Z,29.20
2019-02-24T06:44:51.656Z,30.70
2019-02-24T06:47:17.110Z,24.07
2019-02-24T06:49:42.359Z,28.10
2019-02-24T06:52:07.524Z,25.83
2019-02-24T06:54:33.011Z,23.93
2019-02-24T06:56:58.466Z,27.77
2019-02-24T06:59:23.801Z,30.30
2019-02-24T07:01:48.999Z,26.93
2019-02-24T07:04:14.246Z,25.73
2019-02-24T07:06:39.623Z,24.43
2019-02-24T07:09:05.590Z,34.43
2019-02-24T07:11:30.777Z,22.03
2019-02-24T07:13:55.974Z,24.47
2019-02-24T07:16:21.424Z,27.23
2019-02-24T07:18:46.648Z,25.50
2019-02-24T07:21:20.352Z,26.20
2019-02-24T07:23:49.181Z,26.30
2019-02-24T07:26:14.882Z,25.97
2019-02-24T07:28:47.514Z,26.70
2019-02-24T07:31:13.100Z,25.30
2019-02-24T07:33:38.751Z,29.90
2019-02-24T07:36:04.311Z,26.93
2019-02-24T07:38:29.913Z,28.23
2019-02-24T07:40:55.614Z,34.73
2019-02-24T07:43:21.136Z,30.23
2019-02-24T07:45:46.887Z,31.80
2019-02-24T07:48:12.453Z,25.93
2019-02-24T07:50:38.061Z,26.33
2019-02-24T07:53:03.350Z,29.90
2019-02-24T07:55:28.935Z,32.27
2019-02-24T07:57:54.526Z,31.77
2019-02-24T08:00:20.132Z,31.33
2019-02-24T08:02:45.699Z,27.37
2019-02-24T08:05:11.353Z,25.70
2019-02-24T08:07:36.565Z,28.30
2019-02-24T08:10:04.775Z,27.13
2019-02-24T08:12:30.444Z,23.30
2019-02-24T08:14:57.655Z,23.43
2019-02-24T08:17:23.403Z,27.67
2019-02-24T08:22:14.626Z,22.90
2019-02-24T08:24:40.223Z,21.67
2019-02-24T08:27:05.856Z,27.63
2019-02-24T08:29:31.654Z,24.57
2019-02-24T08:31:57.392Z,26.80
2019-02-24T08:34:22.970Z,25.80
2019-02-24T08:36:48.271Z,24.77
2019-02-24T08:39:13.543Z,25.40
2019-02-24T08:41:38.829Z,25.20
2019-02-24T08:44:06.469Z,30.90
2019-02-24T08:46:32.530Z,24.87
2019-02-24T08:48:58.107Z,29.00
2019-02-24T08:51:23.680Z,28.07
2019-02-24T08:53:49.231Z,26.10
2019-02-24T08:56:14.850Z,23.10
2019-02-24T08:58:40.559Z,25.83
2019-02-24T09:01:06.387Z,25.50
2019-02-24T09:03:31.899Z,26.20
2019-02-24T09:06:03.408Z,25.93
2019-02-24T09:08:28.893Z,23.87
2019-02-24T09:10:54.074Z,22.40
2019-02-24T09:13:20.371Z,25.27
2019-02-24T09:15:45.735Z,25.47
2019-02-24T09:18:10.913Z,28.03
2019-02-24T09:20:36.099Z,26.57
2019-02-24T09:23:01.936Z,26.53
2019-02-24T09:25:27.190Z,21.43
2019-02-24T09:27:52.499Z,27.20
2019-02-24T09:30:17.809Z,23.30
2019-02-24T09:32:43.494Z,24.70
2019-02-24T09:35:09.047Z,23.97
2019-02-24T09:37:34.758Z,21.47
2019-02-24T09:40:00.311Z,21.90
2019-02-24T09:42:25.867Z,23.50
2019-02-24T09:44:51.622Z,85.67
2019-02-24T09:47:18.255Z,133.20
2019-02-24T09:49:43.960Z,27.50
2019-02-24T09:52:09.549Z,25.70
2019-02-24T09:54:36.111Z,23.13
2019-02-24T09:57:02.049Z,24.50
2019-02-24T09:59:27.686Z,19.80
2019-02-24T10:01:53.259Z,21.83
2019-02-24T10:04:19.860Z,21.70
2019-02-24T10:06:45.784Z,25.13
2019-02-24T10:09:11.122Z,24.13
2019-02-24T10:11:36.898Z,27.33
2019-02-24T10:14:04.322Z,24.43
2019-02-24T10:16:29.619Z,27.23
2019-02-24T10:18:54.995Z,23.70
2019-02-24T10:21:20.418Z,21.60
2019-02-24T10:23:52.664Z,25.93
2019-02-24T10:26:17.928Z,58.33
2019-02-24T10:28:43.111Z,68.80
2019-02-24T10:31:08.510Z,27.70
2019-02-24T10:33:33.716Z,27.77
2019-02-24T10:35:59.071Z,29.03
2019-02-24T10:38:24.345Z,26.07
2019-02-24T10:40:49.629Z,24.27
2019-02-24T10:43:14.872Z,24.10
2019-02-24T10:45:40.135Z,25.17
2019-02-24T10:48:13.823Z,27.57
2019-02-24T10:50:32.531Z,25.93
2019-02-24T10:52:59.043Z,23.60
2019-02-24T10:55:29.837Z,25.60
2019-02-24T10:57:55.645Z,24.50
2019-02-24T11:00:22.065Z,26.63
2019-02-24T11:02:47.694Z,30.33
2019-02-24T11:05:15.519Z,26.80
2019-02-24T11:07:42.473Z,23.90
2019-02-24T11:10:08.550Z,27.70
2019-02-24T11:12:33.768Z,31.57
2019-02-24T11:15:01.734Z,28.17
2019-02-24T11:17:27.130Z,34.03
2019-02-24T11:19:52.401Z,28.90
2019-02-24T11:22:17.624Z,26.60
2019-02-24T11:24:43.040Z,26.27
2019-02-24T11:27:08.592Z,29.63
2019-02-24T11:29:33.795Z,27.43
2019-02-24T11:32:00.219Z,25.33
2019-02-24T11:34:25.448Z,25.20
2019-02-24T11:36:50.944Z,23.83
2019-02-24T11:39:16.255Z,32.10
2019-02-24T11:41:41.582Z,27.90
2019-02-24T11:44:06.812Z,28.40
2019-02-24T11:46:32.002Z,26.43
2019-02-24T11:48:57.193Z,31.43
2019-02-24T11:51:22.601Z,25.93
2019-02-24T11:53:47.905Z,23.90
2019-02-24T11:56:13.210Z,27.70
2019-02-24T11:58:38.428Z,25.37
2019-02-24T12:01:03.854Z,30.23
2019-02-24T12:03:29.553Z,29.03
2019-02-24T12:05:54.860Z,24.60
2019-02-24T12:08:20.423Z,25.97
2019-02-24T12:10:48.668Z,25.77
2019-02-24T12:13:19.784Z,23.53
2019-02-24T12:15:48.520Z,26.10
2019-02-24T12:18:13.760Z,27.50
2019-02-24T12:20:38.954Z,32.90
2019-02-24T12:23:11.729Z,27.87
2019-02-24T12:25:37.236Z,25.13
2019-02-24T12:28:06.822Z,30.40
2019-02-24T12:30:34.248Z,27.70
2019-02-24T12:32:59.512Z,29.73
2019-02-24T12:35:29.447Z,29.83
2019-02-24T12:37:54.840Z,28.17
2019-02-24T12:40:22.262Z,32.70
2019-02-24T12:42:54.572Z,31.47
2019-02-24T12:45:22.340Z,29.83
2019-02-24T12:47:47.618Z,29.03
2019-02-24T12:50:14.723Z,27.60
2019-02-24T12:52:43.162Z,23.80
2019-02-24T12:55:08.789Z,23.77
2019-02-24T12:57:34.136Z,20.40
2019-02-24T12:59:59.686Z,21.10
2019-02-24T13:02:25.568Z,23.23
2019-02-24T13:04:51.586Z,23.70
2019-02-24T13:07:19.379Z,23.50
2019-02-24T13:09:46.784Z,25.40
2019-02-24T13:12:12.049Z,24.10
2019-02-24T13:14:38.539Z,21.73
2019-02-24T13:17:03.840Z,20.77
2019-02-24T13:19:29.327Z,22.53
2019-02-24T13:21:54.588Z,21.47
2019-02-24T13:24:19.871Z,21.60
2019-02-24T13:26:45.075Z,23.20
2019-02-24T13:29:10.249Z,32.03
2019-02-24T13:31:35.551Z,18.50
2019-02-24T13:34:01.993Z,20.03
2019-02-24T13:36:27.270Z,20.83
2019-02-24T13:38:52.597Z,17.30
2019-02-24T13:41:17.902Z,22.83
2019-02-24T13:43:43.193Z,24.33
2019-02-24T13:46:08.460Z,22.60
2019-02-24T13:48:33.832Z,21.17
2019-02-24T13:50:59.010Z,19.90
2019-02-24T13:53:24.336Z,21.60
2019-02-24T13:55:51.648Z,23.60
2019-02-24T13:58:16.977Z,23.70
2019-02-24T14:00:42.331Z,34.23
2019-02-24T14:03:07.610Z,23.70
2019-02-24T14:05:33.128Z,23.37
2019-02-24T14:07:58.591Z,23.10
2019-02-24T14:10:24.136Z,22.40
2019-02-24T14:12:49.345Z,23.20
2019-02-24T14:15:15.631Z,23.90
2019-02-24T14:17:41.016Z,23.33
2019-02-24T14:20:08.713Z,21.67
2019-02-24T14:22:34.104Z,20.30
2019-02-24T14:24:59.390Z,19.43
2019-02-24T14:27:24.746Z,22.70
2019-02-24T14:29:51.263Z,24.17
2019-02-24T14:32:16.467Z,23.57
2019-02-24T14:34:41.811Z,21.57
2019-02-24T14:37:11.188Z,22.73
2019-02-24T14:39:36.384Z,27.43
2019-02-24T14:42:04.499Z,23.07
2019-02-24T14:44:29.774Z,23.93
2019-02-24T14:46:55.070Z,23.70
2019-02-24T14:49:20.472Z,23.43
2019-02-24T14:51:47.210Z,23.13
2019-02-24T14:54:12.513Z,22.67
2019-02-24T14:56:37.864Z,24.50
2019-02-24T14:59:03.133Z,22.67
2019-02-24T15:01:28.647Z,23.33
2019-02-24T15:03:54.154Z,22.30
2019-02-24T15:06:19.489Z,20.23
2019-02-24T15:08:44.784Z,24.43
2019-02-24T15:11:10.036Z,19.73
2019-02-24T15:13:36.788Z,22.87
2019-02-24T15:16:02.517Z,24.23
2019-02-24T15:18:28.120Z,26.73
2019-02-24T15:20:53.692Z,24.00
2019-02-24T15:23:19.250Z,30.87
2019-02-24T15:25:44.628Z,26.90
2019-02-24T15:28:10.013Z,25.50
2019-02-24T15:30:37.120Z,24.23
2019-02-24T15:33:02.812Z,21.37
2019-02-24T15:35:28.179Z,19.73
2019-02-24T15:37:53.657Z,21.90
2019-02-24T15:40:18.956Z,20.83
2019-02-24T15:42:44.414Z,29.47
2019-02-24T15:45:13.039Z,23.83
2019-02-24T15:47:38.499Z,26.43
2019-02-24T15:50:06.812Z,22.90
2019-02-24T15:52:32.340Z,32.50
2019-02-24T15:54:58.786Z,32.97
2019-02-24T15:57:29.082Z,27.80
2019-02-24T15:59:54.337Z,25.33
2019-02-24T16:02:19.642Z,31.27
2019-02-24T16:04:44.832Z,27.17
2019-02-24T16:07:38.185Z,26.67
2019-02-24T16:10:27.765Z,25.27
2019-02-24T16:13:01.903Z,20.70
2019-02-24T16:15:42.689Z,27.33
2019-02-24T16:18:11.307Z,23.87
2019-02-24T16:20:50.049Z,27.93
2019-02-24T16:23:20.815Z,19.83
2019-02-24T16:25:48.943Z,25.07
2019-02-24T16:28:14.783Z,21.53
2019-02-24T16:30:40.744Z,17.53
2019-02-24T16:33:10.770Z,34.60
2019-02-24T16:35:36.721Z,23.33
2019-02-24T16:38:02.016Z,23.53
2019-02-24T16:40:27.743Z,19.00
2019-02-24T16:42:56.197Z,24.30
2019-02-24T16:45:22.869Z,19.63
2019-02-24T16:47:48.519Z,20.10
2019-02-24T16:50:21.704Z,21.23
2019-02-24T16:52:53.362Z,20.83
2019-02-24T16:55:21.666Z,20.20
2019-02-24T16:57:47.106Z,21.03
2019-02-24T17:00:19.690Z,20.80
2019-02-24T17:02:44.911Z,18.97
2019-02-24T17:05:11.061Z,25.97
2019-02-24T17:07:36.364Z,22.03
2019-02-24T17:10:03.071Z,25.13
2019-02-24T17:12:28.612Z,25.07
2019-02-24T17:14:53.810Z,27.07
2019-02-24T17:17:18.994Z,35.23
2019-02-24T17:19:44.323Z,53.73
2019-02-24T17:22:10.458Z,54.60
2019-02-24T17:24:35.687Z,54.83
2019-02-24T17:27:01.049Z,44.03
2019-02-24T17:29:26.297Z,53.00
2019-02-24T17:31:51.507Z,40.67
2019-02-24T17:34:16.930Z,32.10
2019-02-24T17:36:43.129Z,29.43
2019-02-24T17:42:04.127Z,39.03
2019-02-24T17:44:29.584Z,82.10
2019-02-24T17:46:55.973Z,97.83
2019-02-24T17:49:21.531Z,86.10
2019-02-24T17:51:47.156Z,71.10
2019-02-24T17:54:13.433Z,65.53
2019-02-24T17:56:40.181Z,60.70
2019-02-24T17:59:06.052Z,72.40
2019-02-24T18:01:37.067Z,63.20
2019-02-24T18:04:03.030Z,61.13
2019-02-24T18:06:28.623Z,52.87
2019-02-24T18:08:54.444Z,62.97
2019-02-24T18:11:20.148Z,67.30
2019-02-24T18:13:52.848Z,53.70
2019-02-24T18:16:19.801Z,46.30
2019-02-24T18:18:46.601Z,41.83
2019-02-24T18:21:14.593Z,37.33
2019-02-24T18:23:40.354Z,37.87
2019-02-24T18:26:08.668Z,34.33
2019-02-24T18:28:39.109Z,30.40
2019-02-24T18:31:05.578Z,35.40
2019-02-24T18:33:48.136Z,29.40
2019-02-24T18:36:22.326Z,30.23
2019-02-24T18:38:47.876Z,35.67
2019-02-24T18:41:13.080Z,30.60
2019-02-24T18:43:38.601Z,27.93
2019-02-24T18:46:03.921Z,26.50
2019-02-24T18:48:31.274Z,27.87
2019-02-24T18:50:58.011Z,30.73
2019-02-24T18:53:23.593Z,32.60
2019-02-24T18:55:49.071Z,33.20
2019-02-24T18:58:14.703Z,31.83
2019-02-24T19:00:39.998Z,32.93
2019-02-24T19:03:05.210Z,32.90
2019-02-24T19:05:30.465Z,34.80
2019-02-24T19:07:56.147Z,34.53
2019-02-24T19:10:22.253Z,35.57
2019-02-24T19:12:48.035Z,34.50
2019-02-24T19:15:14.604Z,30.37
2019-02-24T19:17:42.995Z,30.80
2019-02-24T19:20:15.969Z,29.43
2019-02-24T19:22:44.481Z,29.67
2019-02-24T19:25:11.638Z,30.73
2019-02-24T19:27:39.500Z,34.80
2019-02-24T19:30:07.137Z,28.50
2019-02-24T19:32:35.131Z,33.53
2019-02-24T19:35:00.998Z,39.30
2019-02-24T19:37:27.032Z,32.00
2019-02-24T19:51:54.761Z,28.67
2019-02-24T19:54:22.298Z,34.37
2019-02-24T20:05:14.975Z,31.53
2019-02-24T20:07:41.642Z,35.57
2019-02-24T20:10:21.977Z,38.00
2019-02-24T20:12:59.700Z,40.10
2019-02-24T20:15:37.063Z,49.67
2019-02-24T20:18:16.122Z,40.40
2019-02-24T20:20:46.756Z,45.90
2019-02-24T20:26:13.574Z,47.43
2019-02-24T20:28:40.136Z,46.50
2019-02-24T20:31:06.501Z,41.93
2019-02-24T20:33:33.333Z,45.93
2019-02-24T20:36:01.047Z,52.20
2019-02-24T20:38:26.937Z,49.50
2019-02-24T20:40:56.137Z,47.13
2019-02-24T20:43:21.911Z,45.17
2019-02-24T20:45:48.157Z,35.93
2019-02-24T20:48:21.236Z,43.63
2019-02-24T20:50:47.680Z,43.90
2019-02-24T20:53:14.749Z,49.80
2019-02-24T20:55:45.854Z,46.97
2019-02-24T20:58:14.105Z,45.23
2019-02-24T21:00:43.251Z,41.67
2019-02-24T21:03:09.031Z,48.33
2019-02-24T21:05:34.605Z,43.93
2019-02-24T21:08:00.284Z,47.53
2019-02-24T21:10:26.307Z,44.27
2019-02-24T21:12:52.189Z,43.20
2019-02-24T21:15:17.863Z,43.13
2019-02-24T21:17:43.440Z,44.47
2019-02-24T21:20:10.938Z,40.73
2019-02-24T21:22:37.067Z,42.50
2019-02-24T21:25:04.342Z,39.20
2019-02-24T21:27:30.366Z,40.83
2019-02-24T21:29:56.035Z,38.27
2019-02-24T21:32:21.749Z,41.00
2019-02-24T21:34:48.391Z,37.83
2019-02-24T21:37:13.975Z,40.13
2019-02-24T21:39:41.551Z,35.07
2019-02-24T21:42:07.241Z,35.50
2019-02-24T21:44:36.249Z,35.20
2019-02-24T21:47:02.132Z,37.03
2019-02-24T21:49:28.850Z,35.13
2019-02-24T21:51:56.465Z,40.03
2019-02-24T21:54:22.327Z,36.23
2019-02-24T21:56:48.550Z,39.23
2019-02-24T21:59:14.608Z,42.53
2019-02-24T22:01:40.300Z,49.00
2019-02-24T22:04:06.197Z,50.47
2019-02-24T22:06:32.211Z,40.77
2019-02-24T22:08:59.592Z,35.60
2019-02-24T22:11:25.920Z,41.53
2019-02-24T22:14:01.740Z,39.83
2019-02-24T22:16:27.935Z,39.63
2019-02-24T22:18:54.259Z,41.37
2019-02-24T22:21:20.895Z,37.67
2019-02-24T22:23:46.984Z,40.30
2019-02-24T22:26:14.058Z,44.37
2019-02-24T22:28:42.901Z,62.00
2019-02-24T22:31:09.717Z,51.57
2019-02-24T22:33:41.164Z,44.37
2019-02-24T22:36:14.304Z,42.00
2019-02-24T22:38:40.596Z,46.83
2019-02-24T22:41:08.541Z,46.73
2019-02-24T22:43:35.385Z,46.20
2019-02-24T22:46:03.760Z,44.57
2019-02-24T22:48:29.277Z,39.00
2019-02-24T22:50:55.734Z,37.77
2019-02-24T22:53:21.412Z,38.07
2019-02-24T22:55:47.027Z,39.17
2019-02-24T22:58:13.774Z,36.10
2019-02-24T23:01:05.016Z,35.63
2019-02-24T23:03:37.021Z,29.80
2019-02-24T23:06:06.251Z,35.80
2019-02-24T23:08:31.963Z,39.63
2019-02-24T23:10:58.139Z,38.27
2019-02-24T23:13:23.732Z,34.53
2019-02-24T23:15:48.986Z,32.53
2019-02-24T23:18:14.161Z,33.10
2019-02-24T23:20:39.352Z,35.47
2019-02-24T23:23:04.839Z,32.03
2019-02-24T23:25:30.397Z,34.07
2019-02-24T23:27:55.936Z,30.97
2019-02-24T23:30:21.838Z,32.77
2019-02-24T23:32:47.393Z,39.73
2019-02-24T23:35:12.961Z,31.63
2019-02-24T23:37:39.087Z,32.10
2019-02-24T23:40:06.533Z,33.30
2019-02-24T23:42:32.248Z,34.27
2019-02-24T23:44:58.072Z,31.57
2019-02-24T23:47:23.851Z,34.63
2019-02-24T23:49:49.776Z,35.00
2019-02-24T23:52:15.780Z,31.67
2019-02-24T23:54:41.618Z,31.70
2019-02-24T23:57:07.589Z,37.43
2019-02-24T23:59:35.282Z,37.13
